Atlantic - Newfoundland: Past 24 Hour Conditions

 

Natashquan Airport

01:00 PM EDT 30 October 2014
This table is a summary of hourly weather conditions for the past 24 hours.
Date / Time
(EDT)
Wind(knots) Conditions Visibility(km) Pressure(kPa) Air tempC) Relative humidity(%) Dew pointC)
30 October 2014
13:00 W 17 gust 25 Cloudy 16 100.0 7 85 4
12:00 W 19 gust 24 Cloudy 16 100.0 7 83 4
11:00 W 15 gust 24 Cloudy 16 100.0 7 87 5
10:00 W 17 gust 24 Cloudy 16 100.0 7 90 5
9:00 W 10 Cloudy 16 99.9 7 93 6
8:00 WSW 13 gust 18 Cloudy 16 99.9 7 93 6
7:00 WSW 11 Light Rain 16 99.8 8 94 7
6:00 SSW 6 Light Rain 6 99.8 7 98 7
5:00 SSW 5 Light Rain 13 99.9 8 98 7
4:00 SSW 3 Light Rain 15 99.9 8 98 7
3:00 SSW 5 Light Rain 16 99.9 8 98 7
2:00 SW 4 Light Rain 13 100.0 8 98 7
1:00 SW 6 Mist 8 100.0 8 98 8
0:00 SSW 7 Mist 10 100.1 8 98 8
29 October 2014
23:00 S 6 Light Rain 6 100.2 8 98 8
22:00 SSE 8 Light Rain 13 100.3 8 98 7
21:00 SE 8 Light Rain 6 100.4 7 97 7
20:00 ESE 9 gust 16 Light Rain 16 100.5 7 97 6
19:00 SE 11 gust 16 Light Rain 6 100.7 7 97 6
18:00 SE 12 gust 17 Light Rain 8 100.8 6 96 6
17:00 SE 11 gust 17 Light Rain 11 100.9 6 96 6
16:00 SE 10 gust 15 Light Rain 16 101.0 6 95 5
15:00 SE 12 gust 17 Light Rain 13 101.1 6 96 5
14:00 SE 11 Light Rain 10 101.2 6 96 5
13:00 SE 13 gust 18 Light Rain 6 101.3 5 96 5
 
Map of Atlantic - Newfoundland marine weather areas Southwestern Grand Banks - 44138 Banquereau - 44139 Tail of the Bank - 44140 Nickerson Bank - 44251 Northeast Burgeo Bank - 44255 Blanc-Sablon Airport Cap Whittle Chevery Natashquan Airport Heath Point Miscou Island Grand Étang Ingonish Beach North Mountain St.Paul Island J.A. Douglas McCurdy Sydney Airport Charlottetown Airport East Point North Cape Argentia Bonavista Burgeo Cape Race Corner Brook Daniel's Harbour Englee Ferolle Point La Scie Port aux Basques Rocky Harbour Sagona Island St. Anthony Airport St. John's Int'l Airport St. Lawrence Stephenville Airport Twillingate Winterland Wreckhouse Cartwright Airport Mary's Harbour Grates Cove Pool's Island Marticot Island Long Pond Îles de la Madeleine Airport
Legend: buoyBuoy land stationLand Station